EDT,Max TemperatureF,Mean TemperatureF,Min TemperatureF,Max Dew PointF,MeanDew PointF,Min DewpointF,Max Humidity, Mean Humidity, Min Humidity, Max Sea Level PressureIn, Mean Sea Level PressureIn, Min Sea Level PressureIn, Max VisibilityMiles, Mean VisibilityMiles, Min VisibilityMiles, Max Wind SpeedMPH, Mean Wind SpeedMPH, Max Gust SpeedMPH,PrecipitationIn, CloudCover, Events, WindDirDegrees
2013-4-1,73,60,48,55,45,34,94,60,29,29.98,29.83,29.75,10,10,10,21,7,30,0.00,3,,285
2013-4-2,59,47,35,36,27,19,87,51,22,30.16,30.09,29.99,10,10,10,18,5,24,0.00,0,,308
2013-4-3,57,46,35,36,25,18,81,49,21,30.38,30.26,30.17,10,10,10,16,4,22,0.00,1,,340
2013-4-4,53,43,33,39,28,18,100,61,28,30.43,30.31,30.05,10,9,2,12,3,,0.29,2,,75
2013-4-5,64,52,41,46,40,36,100,73,34,30.02,29.91,29.85,10,8,1,13,7,18,0.68,4,,344
2013-4-6,60,51,42,39,31,25,87,52,29,30.34,30.25,30.03,10,10,10,10,6,16,0.00,0,,64
2013-4-7,71,54,37,48,41,36,93,62,35,30.33,30.21,30.09,10,10,10,14,6,20,0.00,0,,174
2013-4-8,82,68,55,55,52,48,88,59,35,30.14,30.09,30.03,10,10,10,13,7,21,0.00,0,,215
2013-4-9,87,76,64,57,56,54,73,54,31,30.14,30.08,30.01,10,10,10,12,7,17,0.00,0,,218
2013-4-10,91,78,66,61,59,57,73,51,31,30.05,29.98,29.88,10,10,10,13,7,20,0.00,0,,223
2013-4-11,87,76,64,64,60,55,78,59,38,29.95,29.88,29.80,10,10,10,17,8,24,0.00,0,,214
2013-4-12,84,76,68,68,65,63,88,74,54,29.81,29.70,29.59,10,9,2,16,9,24,0.24,5,,200
2013-4-13,71,62,53,64,48,39,82,59,37,29.97,29.90,29.68,10,10,10,16,8,22,0.00,2,,131
2013-4-14,77,62,48,52,45,39,100,57,29,30.14,30.08,29.98,10,10,4,17,5,23,0.00,0,,153
2013-4-15,69,62,55,57,52,39,94,74,45,30.28,30.20,30.12,10,10,10,10,5,20,0.01,6,,100
2013-4-16,78,66,55,63,58,54,94,76,57,30.32,30.26,30.21,10,10,10,14,4,,0.00,6,,147
2013-4-17,87,74,62,64,61,57,94,72,43,30.23,30.18,30.12,10,10,10,9,5,17,0.00,1,,175
2013-4-18,82,72,62,64,61,59,94,73,48,30.24,30.17,30.08,10,10,5,15,6,21,0.01,4,,147
2013-4-19,84,74,64,66,64,59,94,74,48,30.08,29.89,29.73,10,10,1,23,11,39,0.44,4,,191
2013-4-20,68,58,48,64,45,34,100,69,36,30.30,30.07,29.79,10,9,1,18,6,30,0.50,2,,278
2013-4-21,60,50,41,45,37,34,93,62,36,30.58,30.50,30.31,10,10,10,12,5,,0.00,0,,61
2013-4-22,60,48,37,46,42,36,93,77,59,30.55,30.43,30.32,10,10,10,10,4,23,0.00,6,,47
2013-4-23,64,56,48,50,47,45,94,77,55,30.32,30.22,30.15,10,9,2,13,6,18,0.00,6,,30
2013-4-24,78,62,46,55,51,45,100,71,39,30.16,30.06,29.93,10,9,0,15,5,23,0.00,1,,196
2013-4-25,68,58,48,57,44,36,87,59,35,30.31,30.20,29.99,10,10,10,15,6,25,0.00,2,,66
2013-4-26,71,56,42,48,43,37,100,63,31,30.45,30.39,30.31,10,10,5,10,4,,0.00,0,,128
2013-4-27,73,60,46,48,43,34,93,60,28,30.43,30.37,30.32,10,10,10,10,2,,0.00,0,,143
2013-4-28,69,58,48,55,46,37,94,66,33,30.32,30.25,30.16,10,10,3,12,5,,0.05,3,,146
2013-4-29,66,62,57,64,59,55,100,94,88,30.17,30.07,30.01,10,4,0,14,3,18,1.56,8,,127
2013-4-30,69,64,59,61,59,57,100,91,73,30.21,30.13,30.05,10,5,0,9,3,,0.08,8,,30